Aviation Digital Data Service (ADDS)

Output produced by METARs form (2052 UTC 01 March 2015)
found at http://www.aviationweather.gov/adds/metars/
 
KSAV 011953Z 34004KT 7SM OVC005 09/07 A3040 RMK AO2 SLP294 T00940072